Terminal Aerodrome Forecast
Issued by NWS

Home | Current Version | Previous Version | Text Only | Print | Product List | Glossary On
Versions: 1 2 3 4 5 6 7 8 9 10 11 12 13 14
000
FTUS45 KREV 211120
TAFTVL
TAF
KTVL 211120Z 2112/2212 19004KT P6SM SCT180
     FM211700 16006KT P6SM FEW090 SCT180
     FM212100 06006KT P6SM SCT090 BKN180
     FM220300 VRB03KT P6SM SCT180=

USA.gov is the U.S. government's official web portal to all federal, state and local government web resources and services.